Time;durP1;ratioP1;P1;durP2;ratioP2;P2;SDS_P1;SDS_P2;PMS_P1;PMS_P2;Temp;Humidity;BMP_temperature;BMP_pressure;BME280_temperature;BME280_humidity;BME280_pressure;Samples;Min_cycle;Max_cycle;Signal;HPM_P1;HPM_P2
2021/12/20 10:23:20;;;;;;;17.00;10.93;;;154.10;2252.80;;;;;;6159100;23;20019;-80
2021/12/20 10:25:59;;;;;;;16.60;10.20;;;154.20;2252.80;;;;;;6204788;23;20011;-78
2021/12/20 10:41:51;;;;;;;10.05;6.97;;;179.30;2252.80;;;;;;6179157;23;20023;-80
2021/12/20 10:44:35;;;;;;;14.48;10.20;;;179.50;2252.80;;;;;;6053396;23;20007;-79
2021/12/20 17:34:33;;;;;;;70.63;39.97;;;102.70;2227.20;;;;;;6137290;22;20028;-79
2021/12/20 18:35:17;;;;;;;23.88;18.10;;;103.00;2227.20;;;;;;5195847;27;20448;-85
2021/12/20 18:37:43;;;;;;;25.73;18.05;;;103.10;2227.20;;;;;;5175092;27;20031;-90
2021/12/20 18:40:13;;;;;;;23.73;15.45;;;103.10;2227.20;;;;;;5159118;27;20027;-86
2021/12/20 18:42:39;;;;;;;24.55;14.98;;;103.10;2227.20;;;;;;5179365;27;20040;-84
2021/12/20 18:45:07;;;;;;;27.73;15.63;;;103.10;2227.20;;;;;;5165898;27;20034;-86
2021/12/20 18:47:33;;;;;;;27.20;16.20;;;103.10;2227.20;;;;;;5157968;27;20082;-90
2021/12/20 18:50:02;;;;;;;27.30;19.23;;;128.00;2252.80;;;;;;5156927;27;20409;-88
2021/12/20 18:52:27;;;;;;;38.03;17.73;;;103.10;2227.20;;;;;;5155705;27;20018;-88
2021/12/20 18:54:53;;;;;;;41.58;21.77;;;103.10;2227.20;;;;;;5155761;27;20050;-88
2021/12/20 18:57:20;;;;;;;89.03;41.38;;;103.00;2227.20;;;;;;5155584;27;20057;-88
2021/12/20 18:59:46;;;;;;;75.68;37.08;;;103.00;2227.20;;;;;;5174310;27;20072;-89
2021/12/20 19:02:12;;;;;;;54.92;32.13;;;103.00;2227.20;;;;;;5155659;27;20014;-88
2021/12/20 19:04:38;;;;;;;46.38;26.35;;;103.00;2227.20;;;;;;5155701;27;20026;-89
2021/12/20 19:07:05;;;;;;;48.42;29.10;;;103.00;2227.20;;;;;;5155538;27;20022;-86
2021/12/20 19:09:42;;;;;;;41.92;20.42;;;103.00;2227.20;;;;;;5173685;27;20027;-90
2021/12/20 19:12:15;;;;;;;38.80;24.80;;;103.00;2227.20;;;;;;5155858;27;20525;-91
2021/12/20 19:14:42;;;;;;;31.83;19.33;;;103.00;2227.20;;;;;;5155513;27;20030;-89
2021/12/20 19:17:08;;;;;;;67.90;28.98;;;102.80;2227.20;;;;;;5155437;27;20019;-91
2021/12/20 19:19:34;;;;;;;66.82;32.50;;;103.00;2227.20;;;;;;5155514;27;20446;-90
2021/12/20 19:22:01;;;;;;;23.77;15.68;;;103.00;2227.20;;;;;;5155312;27;20039;-89
2021/12/20 19:24:28;;;;;;;22.75;14.95;;;103.00;2227.20;;;;;;5155432;27;20049;-93
2021/12/20 19:26:54;;;;;;;31.83;22.02;;;103.00;2227.20;;;;;;5155381;27;20030;-95
2021/12/20 19:29:20;;;;;;;25.42;17.13;;;103.00;2227.20;;;;;;5155081;27;20374;-89
2021/12/20 19:31:49;;;;;;;22.02;13.95;;;103.00;2227.20;;;;;;5155096;27;20023;-92
2021/12/20 19:34:26;;;;;;;32.45;21.08;;;103.00;2227.20;;;;;;5154712;27;20030;-91
2021/12/20 19:36:57;;;;;;;21.10;15.77;;;103.00;2227.20;;;;;;5155138;27;20022;-88
2021/12/20 19:39:26;;;;;;;26.35;14.85;;;103.00;2227.20;;;;;;5155347;27;20568;-89
2021/12/20 19:41:52;;;;;;;20.80;14.02;;;103.00;2227.20;;;;;;5155365;27;20024;-91
2021/12/20 19:44:19;;;;;;;24.48;14.30;;;103.00;2227.20;;;;;;5154166;27;20117;-91
2021/12/20 19:46:47;;;;;;;22.52;14.55;;;102.80;2227.20;;;;;;5140595;27;20113;-91
2021/12/20 19:49:14;;;;;;;21.42;14.23;;;102.90;2227.20;;;;;;5141267;27;20339;-90
2021/12/20 19:51:40;;;;;;;21.60;13.57;;;102.90;2227.20;;;;;;5141441;27;20052;-91
2021/12/20 19:54:06;;;;;;;27.58;17.70;;;102.90;2227.20;;;;;;5140763;27;20034;-92
2021/12/20 19:56:32;;;;;;;57.00;28.50;;;102.90;2227.20;;;;;;5141000;27;20035;-90
2021/12/20 19:58:59;;;;;;;38.75;20.85;;;103.00;2227.20;;;;;;5141018;27;20060;-87
2021/12/20 20:01:25;;;;;;;68.47;37.85;;;103.00;2227.20;;;;;;5140400;27;20022;-93
2021/12/20 20:03:54;;;;;;;38.00;21.17;;;103.00;2227.20;;;;;;5140534;27;20049;-89
2021/12/20 20:06:21;;;;;;;52.15;27.10;;;103.00;2227.20;;;;;;5140625;27;20361;-90
2021/12/20 20:08:47;;;;;;;45.22;26.40;;;103.00;2227.20;;;;;;5140574;27;20015;-89
2021/12/20 20:11:14;;;;;;;28.17;17.50;;;103.00;2227.20;;;;;;5140268;27;20019;-91
2021/12/20 20:13:40;;;;;;;41.88;27.20;;;102.90;2227.20;;;;;;5139680;27;20054;-87
2021/12/20 20:16:08;;;;;;;26.88;18.15;;;103.00;2227.20;;;;;;5140222;27;20472;-88
2021/12/20 20:18:35;;;;;;;27.75;17.20;;;103.00;2227.20;;;;;;5140064;27;20017;-89
2021/12/20 20:21:02;;;;;;;45.85;22.42;;;102.90;2227.20;;;;;;5139896;27;20042;-87
2021/12/20 20:23:31;;;;;;;18.45;12.45;;;102.80;2227.20;;;;;;5139815;27;20079;-88
2021/12/20 20:25:57;;;;;;;39.80;22.40;;;102.80;2227.20;;;;;;5139845;27;20019;-86
2021/12/20 20:28:23;;;;;;;19.85;12.57;;;102.80;2227.20;;;;;;5139847;27;20105;-87
2021/12/20 20:30:49;;;;;;;33.63;18.70;;;102.80;2227.20;;;;;;5140322;27;20123;-89
2021/12/20 20:33:15;;;;;;;33.50;18.58;;;102.80;2227.20;;;;;;5139659;27;20130;-84
2021/12/20 20:35:41;;;;;;;22.52;12.07;;;102.80;2227.20;;;;;;5158303;27;20059;-89
2021/12/20 20:38:08;;;;;;;20.10;11.48;;;102.80;2227.20;;;;;;5139554;27;20019;-85
2021/12/20 20:40:37;;;;;;;30.52;18.55;;;102.80;2227.20;;;;;;5157872;27;20461;-84
2021/12/20 20:43:03;;;;;;;39.22;23.35;;;102.80;2227.20;;;;;;5139357;27;20118;-83
2021/12/20 20:45:30;;;;;;;46.65;29.10;;;102.90;2227.20;;;;;;5138835;27;20054;-84
2021/12/20 20:47:56;;;;;;;83.05;38.47;;;102.80;2227.20;;;;;;5138954;27;20030;-84
2021/12/20 20:50:32;;;;;;;94.85;53.00;;;102.80;2227.20;;;;;;5139428;27;20361;-92
2021/12/20 20:52:59;;;;;;;46.22;25.55;;;102.80;2227.20;;;;;;5139225;27;20156;-92
2021/12/20 20:55:25;;;;;;;18.48;10.85;;;102.70;2227.20;;;;;;5139953;27;20042;-91
2021/12/20 20:57:53;;;;;;;25.90;16.98;;;102.60;2227.20;;;;;;5138434;27;20025;-91
2021/12/20 21:03:04;;;;;;;21.13;12.93;;;102.60;2227.20;;;;;;5158114;27;20022;-91
2021/12/20 21:05:30;;;;;;;44.75;24.63;;;102.50;2227.20;;;;;;5139602;27;20396;-91
2021/12/20 21:07:58;;;;;;;38.97;24.55;;;102.50;2227.20;;;;;;5139422;27;20015;-92
2021/12/20 21:10:24;;;;;;;24.90;16.50;;;102.50;2227.20;;;;;;5139408;27;20109;-91
2021/12/20 21:12:50;;;;;;;30.90;20.33;;;102.50;2227.20;;;;;;5139338;27;20335;-91
2021/12/20 21:15:16;;;;;;;66.32;38.50;;;102.50;2227.20;;;;;;5139161;27;20030;-90
2021/12/20 21:17:42;;;;;;;57.92;34.45;;;102.50;2227.20;;;;;;5139137;27;20388;-91
2021/12/20 21:20:09;;;;;;;43.47;26.58;;;102.40;2227.20;;;;;;5138995;27;20019;-92
2021/12/20 21:22:35;;;;;;;38.53;22.58;;;102.40;2227.20;;;;;;5139051;27;20019;-92
2021/12/20 21:25:01;;;;;;;62.38;32.80;;;102.40;2227.20;;;;;;5139256;27;20114;-93
2021/12/20 21:27:28;;;;;;;53.00;30.20;;;102.50;2227.20;;;;;;5139409;27;20119;-91
2021/12/20 21:29:54;;;;;;;42.97;25.50;;;102.50;2227.20;;;;;;5139381;27;20018;-93
2021/12/20 21:32:20;;;;;;;27.77;18.35;;;102.50;2227.20;;;;;;5139214;27;20018;-93
2021/12/20 21:34:49;;;;;;;24.73;15.90;;;102.50;2227.20;;;;;;5135483;27;20049;-82
2021/12/20 21:37:16;;;;;;;25.33;17.08;;;102.60;2227.20;;;;;;5135874;27;20474;-90
2021/12/20 21:39:42;;;;;;;25.92;16.30;;;102.60;2227.20;;;;;;5135180;27;20019;-90
2021/12/20 21:42:09;;;;;;;23.90;14.13;;;102.60;2227.20;;;;;;5135465;27;20019;-88
2021/12/20 21:44:35;;;;;;;35.10;19.02;;;102.60;2227.20;;;;;;5135277;27;20072;-88
2021/12/20 21:47:01;;;;;;;35.58;21.33;;;102.70;2227.20;;;;;;5135378;27;20015;-91
2021/12/20 21:49:27;;;;;;;48.63;26.27;;;102.70;2227.20;;;;;;5135099;27;20026;-88
2021/12/20 21:51:53;;;;;;;46.97;27.17;;;102.70;2227.20;;;;;;5135001;27;20447;-88
2021/12/20 21:54:19;;;;;;;58.00;36.45;;;102.70;2227.20;;;;;;5135006;27;20030;-87
2021/12/20 21:56:45;;;;;;;41.85;26.85;;;102.70;2227.20;;;;;;5134937;27;20477;-89
2021/12/20 21:59:11;;;;;;;58.88;38.88;;;102.70;2227.20;;;;;;5134724;27;20026;-87
2021/12/20 22:01:38;;;;;;;51.35;33.38;;;102.80;2227.20;;;;;;5135205;27;20023;-88
2021/12/20 22:04:05;;;;;;;53.42;31.63;;;102.70;2227.20;;;;;;5134776;27;20446;-87
2021/12/20 22:06:32;;;;;;;39.67;24.17;;;102.70;2227.20;;;;;;5134981;27;20026;-86
2021/12/20 22:08:57;;;;;;;41.17;26.05;;;102.70;2227.20;;;;;;5134343;27;20023;-88
2021/12/20 22:11:23;;;;;;;42.25;25.90;;;102.70;2227.20;;;;;;5134875;27;20416;-91
2021/12/20 22:13:49;;;;;;;38.78;22.58;;;102.70;2227.20;;;;;;5134928;27;20056;-91
2021/12/20 22:16:15;;;;;;;23.67;15.85;;;102.70;2227.20;;;;;;5134698;27;20015;-89
2021/12/20 22:18:42;;;;;;;25.48;14.75;;;102.70;2227.20;;;;;;5134351;27;20023;-88
2021/12/20 22:21:08;;;;;;;19.80;13.07;;;102.60;2227.20;;;;;;5134241;27;20461;-89
2021/12/20 22:23:34;;;;;;;23.40;13.75;;;102.60;2227.20;;;;;;5134062;27;20023;-89
2021/12/20 22:26:01;;;;;;;18.80;13.07;;;102.60;2227.20;;;;;;5134369;27;20054;-86
2021/12/20 22:28:26;;;;;;;24.60;15.85;;;102.80;2227.20;;;;;;5134735;27;20447;-87
2021/12/20 22:30:53;;;;;;;18.92;13.73;;;102.60;2227.20;;;;;;5134539;27;20040;-88
2021/12/20 22:33:19;;;;;;;25.42;14.43;;;102.70;2227.20;;;;;;5134161;28;20058;-88
2021/12/20 22:35:45;;;;;;;26.83;17.45;;;102.60;2227.20;;;;;;5134403;28;20019;-90
2021/12/20 22:38:12;;;;;;;28.35;19.00;;;102.60;2227.20;;;;;;5134357;28;20015;-90
2021/12/20 22:40:39;;;;;;;22.23;14.82;;;102.60;2227.20;;;;;;5134521;28;20047;-89
2021/12/20 22:43:05;;;;;;;28.98;20.52;;;102.60;2227.20;;;;;;5134554;28;20019;-89
2021/12/20 22:45:31;;;;;;;36.72;22.23;;;102.50;2227.20;;;;;;5134757;28;20023;-88
2021/12/20 22:47:56;;;;;;;30.75;20.08;;;102.50;2227.20;;;;;;5135548;27;20367;-90
2021/12/20 22:50:23;;;;;;;35.53;21.73;;;102.50;2227.20;;;;;;5135101;28;20046;-86
2021/12/20 22:52:49;;;;;;;19.80;13.30;;;102.50;2227.20;;;;;;5135745;28;20026;-89
2021/12/20 22:55:15;;;;;;;29.92;19.40;;;102.50;2227.20;;;;;;5134831;28;20370;-87
2021/12/20 22:57:41;;;;;;;29.83;19.90;;;102.50;2227.20;;;;;;5135213;28;20061;-88
2021/12/20 23:00:30;;;;;;;27.23;21.17;;;102.50;2227.20;;;;;;5134573;28;20019;-88
2021/12/20 23:02:57;;;;;;;22.63;14.18;;;102.60;2227.20;;;;;;5135159;28;20056;-87
2021/12/20 23:05:24;;;;;;;23.23;16.13;;;102.50;2227.20;;;;;;5136357;28;20026;-87
2021/12/20 23:07:51;;;;;;;28.52;18.20;;;102.50;2227.20;;;;;;5137160;28;20077;-90
2021/12/20 23:10:17;;;;;;;15.40;11.13;;;102.50;2227.20;;;;;;5134361;28;20046;-89
2021/12/20 23:13:04;;;;;;;28.98;19.10;;;102.40;2227.20;;;;;;5134105;28;20081;-88
2021/12/20 23:15:35;;;;;;;23.65;15.27;;;102.60;2227.20;;;;;;5134183;28;20023;-92
2021/12/20 23:18:05;;;;;;;27.85;16.38;;;102.40;2227.20;;;;;;5134485;28;20027;-89
2021/12/20 23:20:33;;;;;;;26.00;17.52;;;102.40;2227.20;;;;;;5135813;27;20019;-91
2021/12/20 23:23:01;;;;;;;33.30;20.35;;;102.40;2227.20;;;;;;5138572;27;20485;-90
2021/12/20 23:25:33;;;;;;;22.58;13.73;;;102.40;2227.20;;;;;;5138378;27;20361;-91
2021/12/20 23:28:27;;;;;;;17.60;11.30;;;77.70;2227.20;;;;;;5138401;27;20019;-89
2021/12/20 23:30:53;;;;;;;;;;;77.70;2227.20;;;;;;5134613;27;20034;-86
2021/12/20 23:33:19;;;;;;;27.80;17.75;;;77.70;2227.20;;;;;;5137153;27;19911;-87
2021/12/20 23:35:47;;;;;;;25.73;15.32;;;77.70;2227.20;;;;;;5137603;27;20019;-87
2021/12/20 23:38:18;;;;;;;23.48;14.38;;;77.70;2227.20;;;;;;5137572;27;20019;-85
2021/12/20 23:40:47;;;;;;;21.55;14.20;;;77.70;2227.20;;;;;;5137324;27;20019;-85
2021/12/20 23:43:20;;;;;;;20.35;12.90;;;77.70;2227.20;;;;;;5136862;27;20079;-87
2021/12/20 23:45:47;;;;;;;;;;;77.70;2227.20;;;;;;5137622;27;20053;-87
2021/12/20 23:48:13;;;;;;;36.88;24.48;;;77.70;2227.20;;;;;;5137129;27;19944;-84
2021/12/20 23:50:39;;;;;;;27.88;17.25;;;77.70;2227.20;;;;;;5136789;27;20015;-85
2021/12/20 23:53:05;;;;;;;43.67;25.17;;;77.70;2227.20;;;;;;5136706;27;20028;-83
2021/12/20 23:55:31;;;;;;;25.58;15.50;;;77.70;2227.20;;;;;;5136581;27;20059;-86
2021/12/20 23:57:57;;;;;;;39.83;24.15;;;77.70;2227.20;;;;;;5136632;27;20019;-82
